aviador You're here:

CYHK Decoded Metar

GJOA HAVEN in NU, CANADA
Report Time2017-09-22 15:00:00
UTC Time2017-09-22 15:24:12
Flight Rules lifr LIFR
Wind320° at 06 kt
W.Decomp.*RWY 31: 5.7 kt HW 1.9 kt RCW
W.Rank320° ranks 4
Current wind is below 320° avg. (13.7)
Visibility4828 m
Phenomena:Light Snow
Mist
Clouds:Overcast 003 Hf
Ceiling300 ft
Temp-4°C (ISA -19)
Dew Point-4°C (100% RH)
AAT-8.7°C
QNH1025 hPa
Density Alt-2,503 ft
Elevation151 ft
Report Wrong Elevation
Raw Report
CYHK 221500Z 32006KT 3SM -SN BR OVC003 M04/M04 A3026 RMK ST8 VIS 6
NE SLP254=

Extra information for CYHK:More info

Metar Taf Metar & Taf Last 4 Metars F.Rules Stats Wind Profile Meteogram Temp Stats Airport Information Weather charts Add Link Nearby VenuesMetar ALERT Operation Metar Decoded Social comments